Latest Weather Observations for Merimbula

IDN60801

Issued at 9:04 pm EDT Monday 22 December 2014 (issued every 30 minutes, with the page automatically refreshed every 10 minutes)

About weather observations | Map of weather stations | Latest weather observations for NSW | Other Formats
Station Details ID: 069147 Name: MERIMBULA AIRPORT AWS Lat: -36.91 Lon: 149.90 Height: 1.5 m
Data from the previous 72 hours. | See also: Recent months at Merimbula
Date/Time
EDT
Temp
°C
App
Temp
°C
Dew
Point
Rel
Hum
%
Delta-T
°C
Wind Press
QNH
hPa
Press
MSL
hPa
Rain
since 9 am
mm
Dir
 
Spd
km/h
Gust
km/h
Spd
kts
Gust
kts
22/09:00pm 21.2 21.0 18.4 84 1.7 NE 17 28 9 15 1012.9 1012.9 0.0
22/08:30pm 21.6 20.7 18.2 81 2.1 NNE 20 32 11 17 1012.8 1012.8 0.0
22/08:00pm 21.3 21.0 17.3 78 2.5 NE 15 24 8 13 1012.4 1012.4 0.0
22/07:30pm 23.2 24.6 17.9 72 3.3 ENE 7 15 4 8 1012.3 1012.3 0.0
22/07:00pm 24.9 26.0 18.8 69 3.9 NW 11 17 6 9 1012.2 1012.2 0.0
22/06:30pm 24.0 25.4 18.6 72 3.4 NNW 9 20 5 11 1011.9 1011.9 0.0
22/06:00pm 23.2 24.6 18.7 76 2.8 N 9 17 5 9 1012.0 1012.0 0.0
22/05:30pm 22.8 24.3 19.0 79 2.4 NNE 9 13 5 7 1011.7 1011.7 0.0
22/05:00pm 22.8 23.4 18.6 77 2.6 NNE 13 20 7 11 1012.1 1012.1 0.0
22/04:30pm 23.1 24.7 19.1 78 2.5 NE 9 17 5 9 1012.3 1012.3 0.0
22/04:00pm 22.5 24.0 18.9 80 2.3 N 9 17 5 9 1012.5 1012.5 0.0
22/03:30pm 22.2 22.1 18.8 81 2.1 NNE 17 26 9 14 1012.8 1012.8 0.0
22/03:00pm 21.7 21.0 18.7 83 1.9 NE 20 32 11 17 1013.1 1013.1 0.0
22/02:30pm 22.0 20.9 18.6 81 2.1 NNE 22 35 12 19 1013.5 1013.5 0.0
22/02:00pm 24.0 22.1 19.3 75 3.0 NE 28 43 15 23 1013.4 1013.4 0.0
22/01:30pm 24.0 22.5 18.6 72 3.4 NE 24 39 13 21 1013.8 1013.8 0.0
22/01:00pm 24.0 22.4 18.4 71 3.5 NE 24 35 13 19 1014.4 1014.4 0.0
22/12:30pm 24.3 23.2 18.7 71 3.5 NE 22 35 12 19 1014.7 1014.7 0.0
22/12:00pm 24.5 23.8 18.7 70 3.7 NE 20 32 11 17 1014.9 1014.9 0.0
22/11:30am 24.5 24.1 18.9 71 3.6 NE 19 26 10 14 1015.0 1015.0 0.0
22/11:00am 24.4 23.9 18.6 70 3.7 NE 19 26 10 14 1014.9 1014.9 0.0
22/10:30am 23.9 23.1 18.5 72 3.4 NE 20 30 11 16 1014.9 1014.9 0.0
22/10:00am 24.5 25.4 18.4 69 3.8 NNW 11 19 6 10 1015.2 1015.2 0.0
22/09:30am 23.1 23.4 17.8 72 3.3 NW 13 19 7 10 1015.3 1015.3 0.0
22/08:30am 20.9 22.0 18.1 84 1.7 N 9 15 5 8 1015.3 1015.3 0.0
22/08:00am 19.3 19.5 17.6 90 1.0 NW 13 17 7 9 1015.2 1015.2 0.0
22/07:46am 19.2 19.8 17.7 91 0.9 NW 11 15 6 8 1015.2 1015.2 0.0
22/07:34am 19.0 20.0 17.8 93 0.7 NW 9 15 5 8 1015.1 1015.1 0.0
22/07:30am 19.0 20.0 17.8 93 0.7 NW 9 13 5 7 1015.2 1015.2 0.0
22/07:00am 18.3 20.9 17.5 95 0.5 CALM 0 9 0 5 1015.2 1015.2 0.0
22/06:30am 17.6 20.0 17.0 96 0.4 CALM 0 0 0 0 1015.0 1015.0 0.0
22/06:00am 17.3 17.9 16.7 96 0.4 NW 9 13 5 7 1014.9 1014.9 0.0
22/05:30am 16.2 16.9 15.6 96 0.3 SSW 6 7 3 4 1014.7 1014.7 0.0
22/05:00am 15.8 16.2 15.2 96 0.3 SSW 7 9 4 5 1014.5 1014.5 0.0
22/04:30am 15.3 15.0 14.5 95 0.5 SSW 9 11 5 6 1014.4 1014.4 0.0
22/04:00am 15.4 16.9 14.6 95 0.5 CALM 0 0 0 0 1014.3 1014.3 0.0
22/03:30am 15.8 17.4 14.8 94 0.6 CALM 0 0 0 0 1014.4 1014.4 0.0
22/03:00am 16.3 18.1 15.5 95 0.5 CALM 0 0 0 0 1014.6 1014.6 0.0
22/02:30am 16.3 18.0 15.3 94 0.6 CALM 0 0 0 0 1014.7 1014.7 0.0
22/02:00am 16.6 18.4 15.6 94 0.6 CALM 0 0 0 0 1014.6 1014.6 0.0
22/01:30am 16.8 17.4 15.8 94 0.6 SSW 7 9 4 5 1014.9 1014.9 0.0
22/01:00am 16.5 18.2 15.2 92 0.8 CALM 0 0 0 0 1015.2 1015.2 0.0
22/12:30am 17.6 18.5 16.5 93 0.7 SW 7 13 4 7 1015.4 1015.4 0.0
22/12:00am 17.2 19.2 15.9 92 0.8 CALM 0 0 0 0 1015.5 1015.5 0.0
 
Date/Time
EDT
Temp
°C
App
Temp
°C
Dew
Point
Rel
Hum
%
Delta-T
°C
Wind Press
QNH
hPa
Press
MSL
hPa
Rain
since 9 am
mm
Dir
 
Spd
km/h
Gust
km/h
Spd
kts
Gust
kts
21/11:30pm 17.6 19.6 16.1 91 0.9 CALM 0 0 0 0 1015.8 1015.8 0.0
21/11:00pm 18.0 20.2 16.5 91 0.9 CALM 0 0 0 0 1015.9 1015.9 0.0
21/10:30pm 18.5 20.8 16.7 89 1.1 CALM 0 0 0 0 1016.1 1016.1 0.0
21/10:00pm 18.9 21.3 16.9 88 1.2 CALM 0 0 0 0 1015.9 1015.9 0.0
21/09:30pm 19.4 20.5 17.2 87 1.3 NE 7 11 4 6 1015.7 1015.7 0.0
21/09:00pm 19.6 20.7 17.0 85 1.6 NE 7 9 4 5 1015.8 1015.8 0.0
21/08:30pm 20.0 20.8 17.2 84 1.7 ENE 9 15 5 8 1015.6 1015.6 0.0
21/08:00pm 20.4 20.8 17.2 82 2.0 NE 11 15 6 8 1015.3 1015.3 0.0
21/07:30pm 20.8 21.1 17.0 79 2.3 NE 11 17 6 9 1015.1 1015.1 0.0
21/07:00pm 21.5 21.5 17.1 76 2.7 NNE 13 22 7 12 1014.8 1014.8 0.0
21/06:30pm 21.8 21.7 17.8 78 2.5 NE 15 20 8 11 1014.7 1014.7 0.0
21/06:00pm 21.5 21.1 17.1 76 2.7 NE 15 22 8 12 1015.0 1015.0 0.0
21/05:30pm 22.0 21.2 17.2 74 2.9 NE 17 28 9 15 1014.6 1014.6 0.0
21/05:00pm 22.4 21.3 17.3 73 3.1 NE 19 28 10 15 1014.8 1014.8 0.0
21/04:30pm 22.6 21.4 17.1 71 3.4 NE 19 32 10 17 1015.0 1015.0 0.0
21/04:00pm 23.2 22.2 17.9 72 3.3 NE 20 30 11 16 1015.0 1015.0 0.0
21/03:30pm 23.0 21.9 17.7 72 3.3 NE 20 30 11 16 1015.1 1015.1 0.0
21/03:00pm 22.8 21.5 17.3 71 3.4 NE 20 33 11 18 1015.1 1015.1 0.0
21/02:30pm 22.8 21.1 17.3 71 3.4 NE 22 37 12 20 1015.2 1015.2 0.0
21/02:00pm 22.7 20.3 17.4 72 3.3 NE 26 39 14 21 1015.2 1015.2 0.0
21/01:30pm 22.9 21.0 17.6 72 3.3 NE 24 35 13 19 1015.4 1015.4 0.0
21/01:00pm 23.0 20.2 16.3 66 4.1 NE 26 41 14 22 1015.5 1015.5 0.0
21/12:30pm 23.0 20.5 16.1 65 4.2 NE 24 37 13 20 1016.0 1016.0 0.0
21/12:00pm 22.7 20.4 15.8 65 4.1 NE 22 37 12 20 1016.1 1016.1 0.0
21/11:30am 22.9 20.8 15.2 62 4.6 NE 20 32 11 17 1016.2 1016.2 0.0
21/11:00am 22.3 20.1 14.9 63 4.4 NE 20 32 11 17 1016.6 1016.6 0.0
21/10:30am 21.8 20.3 15.4 67 3.8 E 17 24 9 13 1016.7 1016.7 0.0
21/10:00am 21.2 19.8 14.6 66 3.9 E 15 24 8 13 1017.0 1017.0 0.0
21/09:30am 20.6 19.3 14.7 69 3.5 E 15 20 8 11 1016.8 1016.8 0.0
21/09:00am 19.6 19.0 13.5 68 3.5 ESE 9 13 5 7 1017.1 1017.1 0.0
21/08:30am 19.3 20.5 13.7 70 3.2 CALM 0 0 0 0 1016.9 1016.9 0.0
21/08:00am 17.4 18.2 12.5 73 2.7 CALM 0 0 0 0 1017.0 1017.0 0.0
21/07:30am 15.4 16.1 12.2 81 1.7 CALM 0 0 0 0 1016.8 1016.8 0.0
21/07:00am 13.6 14.2 11.8 89 1.0 CALM 0 0 0 0 1016.8 1016.8 0.0
21/06:30am 12.2 12.6 11.3 94 0.5 CALM 0 0 0 0 1016.9 1016.9 0.0
21/06:00am 11.5 10.9 10.4 93 0.6 SSW 4 6 2 3 1016.6 1016.6 0.0
21/05:30am 11.3 9.6 10.0 92 0.7 SSW 9 11 5 6 1016.6 1016.6 0.0
21/05:00am 11.4 10.1 10.1 92 0.7 SSW 7 9 4 5 1016.6 1016.6 0.0
21/04:30am 11.6 10.4 10.3 92 0.7 SSW 7 9 4 5 1016.6 1016.6 0.0
21/04:00am 11.9 10.8 10.6 92 0.7 SSW 7 9 4 5 1016.8 1016.8 0.0
21/03:30am 11.9 12.1 10.5 91 0.7 CALM 0 0 0 0 1016.8 1016.8 0.0
21/03:00am 11.8 12.0 10.4 91 0.7 CALM 0 0 0 0 1017.1 1017.1 0.0
21/02:30am 12.0 12.2 10.6 91 0.7 CALM 0 0 0 0 1017.4 1017.4 0.0
21/02:00am 12.1 12.3 10.5 90 0.8 CALM 0 0 0 0 1017.6 1017.6 0.0
21/01:30am 12.4 12.7 10.8 90 0.8 CALM 0 0 0 0 1017.8 1017.8 0.0
21/01:00am 12.5 12.7 10.7 89 0.9 CALM 0 0 0 0 1017.9 1017.9 0.0
21/12:30am 12.6 12.9 11.0 90 0.8 CALM 0 0 0 0 1018.2 1018.2 0.0
21/12:00am 12.5 12.7 10.6 88 1.0 CALM 0 0 0 0 1018.4 1018.4 0.0
 
Date/Time
EDT
Temp
°C
App
Temp
°C
Dew
Point
Rel
Hum
%
Delta-T
°C
Wind Press
QNH
hPa
Press
MSL
hPa
Rain
since 9 am
mm
Dir
 
Spd
km/h
Gust
km/h
Spd
kts
Gust
kts
20/11:30pm 12.9 13.2 10.8 87 1.1 CALM 0 0 0 0 1018.6 1018.6 0.0
20/11:00pm 13.3 13.6 10.8 85 1.3 CALM 0 0 0 0 1018.7 1018.7 0.0
20/10:30pm 14.0 14.4 11.3 84 1.4 CALM 0 0 0 0 1018.7 1018.7 0.0
20/10:00pm 14.6 15.0 11.2 80 1.8 CALM 0 0 0 0 1018.6 1018.6 0.0
20/09:30pm 15.8 14.9 11.2 74 2.5 NW 7 9 4 5 1018.6 1018.6 0.0
20/09:00pm 16.3 15.3 10.4 68 3.1 N 6 9 3 5 1018.3 1018.3 0.0
20/08:30pm 17.0 15.9 10.8 67 3.3 NNE 7 11 4 6 1018.1 1018.1 0.0
20/08:00pm 17.4 16.3 10.5 64 3.7 NE 7 13 4 7 1018.1 1018.1 0.0
20/07:30pm 18.6 17.2 10.9 61 4.2 ENE 9 13 5 7 1017.9 1017.9 0.0
20/07:00pm 19.1 17.7 10.9 59 4.4 E 9 15 5 8 1017.7 1017.7 0.0
20/06:30pm 19.6 17.9 11.1 58 4.6 E 11 17 6 9 1017.4 1017.4 0.0
20/06:00pm 20.1 18.4 11.3 57 4.8 ESE 11 17 6 9 1017.3 1017.3 0.0
20/05:30pm 20.2 18.3 11.9 59 4.6 ESE 13 19 7 10 1017.1 1017.1 0.0
20/05:00pm 20.1 17.8 11.6 58 4.7 ESE 15 22 8 12 1017.0 1017.0 0.0
20/04:30pm 20.3 18.3 11.5 57 4.9 ESE 13 20 7 11 1017.0 1017.0 0.0
20/04:00pm 20.5 18.0 9.7 50 5.8 E 13 17 7 9 1017.1 1017.1 0.0
20/03:30pm 20.7 18.2 9.6 49 5.9 E 13 22 7 12 1017.3 1017.3 0.0
20/03:00pm 20.3 17.8 9.8 51 5.6 ENE 13 20 7 11 1017.3 1017.3 0.0
20/02:30pm 20.7 18.0 10.5 52 5.5 ENE 15 20 8 11 1017.3 1017.3 0.0
20/02:00pm 20.3 17.0 9.5 50 5.7 ENE 17 24 9 13 1017.2 1017.2 0.0
20/01:30pm 20.6 17.8 10.1 51 5.7 E 15 24 8 13 1017.4 1017.4 0.0
20/01:00pm 20.2 17.4 10.0 52 5.5 E 15 22 8 12 1017.6 1017.6 0.0
20/12:30pm 21.1 18.8 10.6 51 5.7 E 13 20 7 11 1017.5 1017.5 0.0
20/12:00pm 19.9 17.0 9.8 52 5.4 E 15 20 8 11 1017.6 1017.6 0.0
20/11:30am 19.6 16.9 10.3 55 5.0 E 15 20 8 11 1017.6 1017.6 0.0
20/11:00am 19.2 16.5 10.5 57 4.7 E 15 20 8 11 1017.7 1017.7 0.0
20/10:30am 19.2 16.4 9.9 55 5.0 E 15 20 8 11 1017.6 1017.6 0.0
20/10:00am 19.0 16.2 10.0 56 4.8 E 15 22 8 12 1017.7 1017.7 0.0
20/09:30am 18.9 16.9 8.8 52 5.3 E 9 17 5 9 1017.7 1017.7 0.0
20/09:00am 18.6 17.1 8.6 52 5.2 ENE 6 11 3 6 1017.9 1017.9 0.0
20/08:30am 18.0 15.8 7.7 51 5.2 WNW 9 15 5 8 1018.0 1018.0 0.0
20/08:00am 16.8 14.7 8.2 57 4.4 W 9 15 5 8 1017.9 1017.9 0.0
20/07:30am 15.4 14.8 8.9 65 3.3 NW 2 9 1 5 1017.8 1017.8 0.0
20/07:00am 13.3 13.1 9.2 76 2.1 CALM 0 0 0 0 1017.7 1017.7 0.0
20/06:30am 10.6 9.5 8.5 87 1.0 SSW 4 7 2 4 1017.5 1017.5 0.0
20/06:00am 10.0 8.8 8.1 88 0.9 SSW 4 7 2 4 1017.4 1017.4 0.0
20/05:30am 9.9 7.4 8.0 88 0.9 SSW 11 15 6 8 1017.3 1017.3 0.0
20/05:00am 9.8 8.1 8.2 90 0.8 S 7 9 4 5 1017.3 1017.3 0.0
20/04:30am 9.6 8.8 8.2 91 0.7 S 2 7 1 4 1017.2 1017.2 0.0
20/04:00am 9.4 8.8 7.5 88 0.9 CALM 0 6 0 3 1017.3 1017.3 0.0
20/03:30am 10.1 8.3 8.0 87 1.0 SW 7 9 4 5 1017.5 1017.5 0.0
20/03:00am 10.2 8.6 8.1 87 1.0 W 6 9 3 5 1017.6 1017.6 0.0
20/02:30am 11.0 9.4 8.8 86 1.1 SW 7 9 4 5 1017.9 1017.9 0.0
20/02:00am 11.3 11.0 8.7 84 1.3 CALM 0 0 0 0 1018.1 1018.1 0.0
20/01:30am 11.8 10.0 9.5 86 1.2 NNW 9 13 5 7 1018.4 1018.4 0.0
20/01:00am 11.0 10.5 8.0 82 1.5 CALM 0 0 0 0 1018.6 1018.6 0.0
20/12:30am 12.3 12.1 9.0 80 1.7 CALM 0 0 0 0 1018.8 1018.8 0.0
20/12:00am 12.3 11.8 7.8 74 2.2 CALM 0 0 0 0 1018.8 1018.8 0.0
 
Date/Time
EDT
Temp
°C
App
Temp
°C
Dew
Point
Rel
Hum
%
Delta-T
°C
Wind Press
QNH
hPa
Press
MSL
hPa
Rain
since 9 am
mm
Dir
 
Spd
km/h
Gust
km/h
Spd
kts
Gust
kts
19/11:30pm 13.2 11.9 7.6 69 2.7 SSE 4 7 2 4 1018.9 1018.9 0.0
19/11:00pm 14.2 12.5 7.7 65 3.2 SW 6 11 3 6 1018.9 1018.9 0.0
19/10:30pm 13.7 13.2 7.9 68 2.9 CALM 0 0 0 0 1018.8 1018.8 0.0
19/10:00pm 15.4 13.3 8.2 62 3.6 SSE 9 15 5 8 1018.6 1018.6 0.0
19/09:30pm 15.8 13.0 8.5 62 3.7 SE 13 19 7 10 1018.2 1018.2 0.0

Other Formats:

Comma delimited format used in spreadsheet applications
http://www.bom.gov.au/fwo/IDN60801/IDN60801.95929.axf

JavaScript Object Notation format (JSON) in row-major order
http://www.bom.gov.au/fwo/IDN60801/IDN60801.95929.json